sensor_id;sensor_type;location;lat;lon;timestamp;P1;durP1;ratioP1;P2;durP2;ratioP2
5279;SDS011;2663;53.588;10.010;2023-08-24T00:01:37;12.77;;;4.13;;
5279;SDS011;2663;53.588;10.010;2023-08-24T00:04:04;10.10;;;4.50;;
5279;SDS011;2663;53.588;10.010;2023-08-24T00:06:31;9.23;;;3.60;;
5279;SDS011;2663;53.588;10.010;2023-08-24T00:08:58;8.53;;;4.23;;
5279;SDS011;2663;53.588;10.010;2023-08-24T00:11:25;13.07;;;4.20;;
5279;SDS011;2663;53.588;10.010;2023-08-24T00:13:52;17.73;;;4.37;;
5279;SDS011;2663;53.588;10.010;2023-08-24T00:16:20;19.93;;;6.27;;
5279;SDS011;2663;53.588;10.010;2023-08-24T00:18:47;12.47;;;3.30;;
5279;SDS011;2663;53.588;10.010;2023-08-24T00:21:14;6.97;;;3.70;;
5279;SDS011;2663;53.588;10.010;2023-08-24T00:23:52;9.63;;;3.80;;
5279;SDS011;2663;53.588;10.010;2023-08-24T00:26:19;16.10;;;4.40;;
5279;SDS011;2663;53.588;10.010;2023-08-24T00:28:46;11.10;;;3.37;;
5279;SDS011;2663;53.588;10.010;2023-08-24T00:31:15;10.97;;;4.40;;
5279;SDS011;2663;53.588;10.010;2023-08-24T00:33:42;9.13;;;3.57;;
5279;SDS011;2663;53.588;10.010;2023-08-24T00:36:09;10.13;;;4.17;;
5279;SDS011;2663;53.588;10.010;2023-08-24T00:38:36;7.67;;;2.83;;
5279;SDS011;2663;53.588;10.010;2023-08-24T00:41:03;7.60;;;3.57;;
5279;SDS011;2663;53.588;10.010;2023-08-24T00:43:30;13.03;;;2.93;;
5279;SDS011;2663;53.588;10.010;2023-08-24T00:45:57;7.77;;;3.27;;
5279;SDS011;2663;53.588;10.010;2023-08-24T00:48:27;7.57;;;3.10;;
5279;SDS011;2663;53.588;10.010;2023-08-24T00:50:56;12.77;;;3.20;;
5279;SDS011;2663;53.588;10.010;2023-08-24T00:53:25;5.80;;;3.40;;
5279;SDS011;2663;53.588;10.010;2023-08-24T00:55:53;7.90;;;3.60;;
5279;SDS011;2663;53.588;10.010;2023-08-24T00:58:20;9.40;;;3.10;;
5279;SDS011;2663;53.588;10.010;2023-08-24T01:00:54;4.27;;;3.27;;
5279;SDS011;2663;53.588;10.010;2023-08-24T01:03:22;11.13;;;3.27;;
5279;SDS011;2663;53.588;10.010;2023-08-24T01:05:49;11.63;;;3.33;;
5279;SDS011;2663;53.588;10.010;2023-08-24T01:08:16;10.73;;;3.17;;
5279;SDS011;2663;53.588;10.010;2023-08-24T01:10:54;13.50;;;4.30;;
5279;SDS011;2663;53.588;10.010;2023-08-24T01:13:39;12.73;;;4.17;;
5279;SDS011;2663;53.588;10.010;2023-08-24T01:16:12;16.03;;;4.80;;
5279;SDS011;2663;53.588;10.010;2023-08-24T01:18:44;7.53;;;4.20;;
5279;SDS011;2663;53.588;10.010;2023-08-24T01:21:13;10.03;;;4.90;;
5279;SDS011;2663;53.588;10.010;2023-08-24T01:23:43;9.80;;;4.40;;
5279;SDS011;2663;53.588;10.010;2023-08-24T01:28:46;17.20;;;4.83;;
5279;SDS011;2663;53.588;10.010;2023-08-24T01:31:14;14.70;;;6.10;;
5279;SDS011;2663;53.588;10.010;2023-08-24T01:33:45;18.17;;;5.70;;
5279;SDS011;2663;53.588;10.010;2023-08-24T01:36:12;9.33;;;4.97;;
5279;SDS011;2663;53.588;10.010;2023-08-24T01:38:43;11.40;;;4.93;;
5279;SDS011;2663;53.588;10.010;2023-08-24T01:43:52;11.33;;;6.00;;
5279;SDS011;2663;53.588;10.010;2023-08-24T01:46:21;11.87;;;5.93;;
5279;SDS011;2663;53.588;10.010;2023-08-24T01:48:51;16.80;;;5.70;;
5279;SDS011;2663;53.588;10.010;2023-08-24T01:51:19;12.43;;;5.93;;
5279;SDS011;2663;53.588;10.010;2023-08-24T01:53:46;11.13;;;6.03;;
5279;SDS011;2663;53.588;10.010;2023-08-24T01:56:15;11.20;;;6.70;;
5279;SDS011;2663;53.588;10.010;2023-08-24T01:58:42;24.30;;;7.73;;
5279;SDS011;2663;53.588;10.010;2023-08-24T02:01:09;12.77;;;7.00;;
5279;SDS011;2663;53.588;10.010;2023-08-24T02:03:39;18.67;;;6.93;;
5279;SDS011;2663;53.588;10.010;2023-08-24T02:06:06;23.50;;;7.90;;
5279;SDS011;2663;53.588;10.010;2023-08-24T02:08:34;10.63;;;6.80;;
5279;SDS011;2663;53.588;10.010;2023-08-24T02:11:01;18.87;;;5.73;;
5279;SDS011;2663;53.588;10.010;2023-08-24T02:13:27;16.63;;;6.67;;
5279;SDS011;2663;53.588;10.010;2023-08-24T02:16:01;14.23;;;6.00;;
5279;SDS011;2663;53.588;10.010;2023-08-24T02:18:32;11.40;;;5.50;;
5279;SDS011;2663;53.588;10.010;2023-08-24T02:20:59;14.40;;;7.23;;
5279;SDS011;2663;53.588;10.010;2023-08-24T02:23:26;7.50;;;5.50;;
5279;SDS011;2663;53.588;10.010;2023-08-24T02:25:53;11.10;;;6.50;;
5279;SDS011;2663;53.588;10.010;2023-08-24T02:28:22;10.53;;;6.33;;
5279;SDS011;2663;53.588;10.010;2023-08-24T02:30:48;15.00;;;7.13;;
5279;SDS011;2663;53.588;10.010;2023-08-24T02:33:15;15.03;;;6.20;;
5279;SDS011;2663;53.588;10.010;2023-08-24T02:35:42;13.03;;;6.90;;
5279;SDS011;2663;53.588;10.010;2023-08-24T02:38:10;13.50;;;7.23;;
5279;SDS011;2663;53.588;10.010;2023-08-24T02:40:37;16.10;;;6.90;;
5279;SDS011;2663;53.588;10.010;2023-08-24T02:43:04;14.10;;;7.40;;
5279;SDS011;2663;53.588;10.010;2023-08-24T02:45:31;13.23;;;7.17;;
5279;SDS011;2663;53.588;10.010;2023-08-24T02:47:57;11.80;;;7.20;;
5279;SDS011;2663;53.588;10.010;2023-08-24T02:50:24;14.00;;;7.87;;
5279;SDS011;2663;53.588;10.010;2023-08-24T02:52:51;13.60;;;7.60;;
5279;SDS011;2663;53.588;10.010;2023-08-24T02:55:18;15.53;;;8.03;;
5279;SDS011;2663;53.588;10.010;2023-08-24T02:57:45;8.20;;;6.37;;
5279;SDS011;2663;53.588;10.010;2023-08-24T03:00:12;14.17;;;7.90;;
5279;SDS011;2663;53.588;10.010;2023-08-24T03:02:40;9.27;;;6.50;;
5279;SDS011;2663;53.588;10.010;2023-08-24T03:05:06;10.37;;;6.80;;
5279;SDS011;2663;53.588;10.010;2023-08-24T03:07:33;15.00;;;7.60;;
5279;SDS011;2663;53.588;10.010;2023-08-24T03:10:00;13.07;;;6.90;;
5279;SDS011;2663;53.588;10.010;2023-08-24T03:12:27;17.40;;;7.20;;
5279;SDS011;2663;53.588;10.010;2023-08-24T03:14:54;18.10;;;8.80;;
5279;SDS011;2663;53.588;10.010;2023-08-24T03:17:20;17.93;;;8.00;;
5279;SDS011;2663;53.588;10.010;2023-08-24T03:19:47;16.20;;;8.70;;
5279;SDS011;2663;53.588;10.010;2023-08-24T03:22:14;11.87;;;7.37;;
5279;SDS011;2663;53.588;10.010;2023-08-24T03:24:41;12.23;;;7.70;;
5279;SDS011;2663;53.588;10.010;2023-08-24T03:27:07;12.33;;;7.73;;
5279;SDS011;2663;53.588;10.010;2023-08-24T03:29:34;13.33;;;8.00;;
5279;SDS011;2663;53.588;10.010;2023-08-24T03:32:01;12.67;;;8.43;;
5279;SDS011;2663;53.588;10.010;2023-08-24T03:34:27;16.17;;;7.37;;
5279;SDS011;2663;53.588;10.010;2023-08-24T03:36:55;12.33;;;7.27;;
5279;SDS011;2663;53.588;10.010;2023-08-24T03:39:22;19.67;;;7.40;;
5279;SDS011;2663;53.588;10.010;2023-08-24T03:41:49;22.50;;;7.63;;
5279;SDS011;2663;53.588;10.010;2023-08-24T03:44:16;15.40;;;8.17;;
5279;SDS011;2663;53.588;10.010;2023-08-24T03:46:42;15.20;;;7.30;;
5279;SDS011;2663;53.588;10.010;2023-08-24T03:49:09;14.80;;;7.37;;
5279;SDS011;2663;53.588;10.010;2023-08-24T03:51:36;9.77;;;6.73;;
5279;SDS011;2663;53.588;10.010;2023-08-24T03:54:03;14.27;;;7.47;;
5279;SDS011;2663;53.588;10.010;2023-08-24T03:56:31;18.23;;;7.27;;
5279;SDS011;2663;53.588;10.010;2023-08-24T03:58:58;14.70;;;8.33;;
5279;SDS011;2663;53.588;10.010;2023-08-24T04:01:25;17.07;;;8.70;;
5279;SDS011;2663;53.588;10.010;2023-08-24T04:03:52;15.87;;;8.90;;
5279;SDS011;2663;53.588;10.010;2023-08-24T04:06:19;18.77;;;9.00;;
5279;SDS011;2663;53.588;10.010;2023-08-24T04:08:46;12.30;;;8.70;;
5279;SDS011;2663;53.588;10.010;2023-08-24T04:11:13;17.00;;;8.77;;
5279;SDS011;2663;53.588;10.010;2023-08-24T04:13:39;18.37;;;8.17;;
5279;SDS011;2663;53.588;10.010;2023-08-24T04:16:06;10.33;;;8.37;;
5279;SDS011;2663;53.588;10.010;2023-08-24T04:18:33;14.77;;;7.03;;
5279;SDS011;2663;53.588;10.010;2023-08-24T04:21:00;25.47;;;8.80;;
5279;SDS011;2663;53.588;10.010;2023-08-24T04:23:27;16.30;;;8.07;;
5279;SDS011;2663;53.588;10.010;2023-08-24T04:25:54;16.23;;;8.10;;
5279;SDS011;2663;53.588;10.010;2023-08-24T04:28:20;19.67;;;8.40;;
5279;SDS011;2663;53.588;10.010;2023-08-24T04:30:54;14.93;;;7.87;;
5279;SDS011;2663;53.588;10.010;2023-08-24T04:33:23;14.10;;;7.97;;
5279;SDS011;2663;53.588;10.010;2023-08-24T04:35:50;13.73;;;8.10;;
5279;SDS011;2663;53.588;10.010;2023-08-24T04:38:17;15.60;;;8.90;;
5279;SDS011;2663;53.588;10.010;2023-08-24T04:40:50;14.73;;;9.17;;
5279;SDS011;2663;53.588;10.010;2023-08-24T04:43:22;20.83;;;9.20;;
5279;SDS011;2663;53.588;10.010;2023-08-24T04:45:50;21.40;;;8.97;;
5279;SDS011;2663;53.588;10.010;2023-08-24T04:48:22;13.40;;;8.30;;
5279;SDS011;2663;53.588;10.010;2023-08-24T04:50:50;14.60;;;8.23;;
5279;SDS011;2663;53.588;10.010;2023-08-24T04:53:17;12.73;;;7.80;;
5279;SDS011;2663;53.588;10.010;2023-08-24T04:55:44;12.27;;;7.40;;
5279;SDS011;2663;53.588;10.010;2023-08-24T04:58:12;14.23;;;8.20;;
5279;SDS011;2663;53.588;10.010;2023-08-24T05:00:39;11.40;;;7.00;;
5279;SDS011;2663;53.588;10.010;2023-08-24T05:03:06;11.63;;;7.70;;
5279;SDS011;2663;53.588;10.010;2023-08-24T05:05:36;18.30;;;9.10;;
5279;SDS011;2663;53.588;10.010;2023-08-24T05:08:04;18.73;;;8.17;;
5279;SDS011;2663;53.588;10.010;2023-08-24T05:10:38;14.70;;;7.20;;
5279;SDS011;2663;53.588;10.010;2023-08-24T05:13:05;18.03;;;7.43;;
5279;SDS011;2663;53.588;10.010;2023-08-24T05:15:32;13.17;;;6.63;;
5279;SDS011;2663;53.588;10.010;2023-08-24T05:17:59;13.20;;;8.40;;
5279;SDS011;2663;53.588;10.010;2023-08-24T05:20:26;15.30;;;6.97;;
5279;SDS011;2663;53.588;10.010;2023-08-24T05:22:53;14.13;;;7.40;;
5279;SDS011;2663;53.588;10.010;2023-08-24T05:25:21;12.67;;;6.80;;
5279;SDS011;2663;53.588;10.010;2023-08-24T05:27:49;20.30;;;7.07;;
5279;SDS011;2663;53.588;10.010;2023-08-24T05:30:16;15.90;;;7.13;;
5279;SDS011;2663;53.588;10.010;2023-08-24T05:32:43;18.37;;;6.77;;
5279;SDS011;2663;53.588;10.010;2023-08-24T05:35:10;9.90;;;5.77;;
5279;SDS011;2663;53.588;10.010;2023-08-24T05:37:37;17.53;;;6.73;;
5279;SDS011;2663;53.588;10.010;2023-08-24T05:40:04;11.47;;;6.57;;
5279;SDS011;2663;53.588;10.010;2023-08-24T05:42:31;8.53;;;5.83;;
5279;SDS011;2663;53.588;10.010;2023-08-24T05:44:58;11.00;;;5.83;;
5279;SDS011;2663;53.588;10.010;2023-08-24T05:47:24;19.50;;;6.50;;
5279;SDS011;2663;53.588;10.010;2023-08-24T05:49:51;10.40;;;5.60;;
5279;SDS011;2663;53.588;10.010;2023-08-24T05:52:18;10.23;;;4.80;;
5279;SDS011;2663;53.588;10.010;2023-08-24T05:54:45;6.07;;;3.97;;
5279;SDS011;2663;53.588;10.010;2023-08-24T05:57:11;6.13;;;4.03;;
5279;SDS011;2663;53.588;10.010;2023-08-24T05:59:38;18.90;;;4.17;;
5279;SDS011;2663;53.588;10.010;2023-08-24T06:02:05;11.80;;;3.93;;
5279;SDS011;2663;53.588;10.010;2023-08-24T06:04:31;7.57;;;3.90;;
5279;SDS011;2663;53.588;10.010;2023-08-24T06:06:58;7.07;;;3.40;;
5279;SDS011;2663;53.588;10.010;2023-08-24T06:09:25;6.53;;;4.10;;
5279;SDS011;2663;53.588;10.010;2023-08-24T06:11:52;11.10;;;4.30;;
5279;SDS011;2663;53.588;10.010;2023-08-24T06:14:19;10.70;;;4.57;;
5279;SDS011;2663;53.588;10.010;2023-08-24T06:16:45;9.23;;;4.13;;
5279;SDS011;2663;53.588;10.010;2023-08-24T06:19:12;14.23;;;4.17;;
5279;SDS011;2663;53.588;10.010;2023-08-24T06:21:39;10.80;;;4.40;;
5279;SDS011;2663;53.588;10.010;2023-08-24T06:24:06;17.17;;;5.50;;
5279;SDS011;2663;53.588;10.010;2023-08-24T06:26:32;21.57;;;2.93;;
5279;SDS011;2663;53.588;10.010;2023-08-24T06:28:59;13.07;;;8.00;;
5279;SDS011;2663;53.588;10.010;2023-08-24T06:31:26;14.20;;;4.50;;
5279;SDS011;2663;53.588;10.010;2023-08-24T06:33:53;7.10;;;3.67;;
5279;SDS011;2663;53.588;10.010;2023-08-24T06:36:19;6.37;;;3.90;;
5279;SDS011;2663;53.588;10.010;2023-08-24T06:38:46;9.27;;;3.23;;
5279;SDS011;2663;53.588;10.010;2023-08-24T06:41:13;5.57;;;2.77;;
5279;SDS011;2663;53.588;10.010;2023-08-24T06:43:39;10.73;;;4.17;;
5279;SDS011;2663;53.588;10.010;2023-08-24T06:46:06;13.50;;;2.90;;
5279;SDS011;2663;53.588;10.010;2023-08-24T06:48:34;9.40;;;3.03;;
5279;SDS011;2663;53.588;10.010;2023-08-24T06:51:02;6.00;;;3.87;;
5279;SDS011;2663;53.588;10.010;2023-08-24T06:53:29;18.53;;;3.50;;
5279;SDS011;2663;53.588;10.010;2023-08-24T06:55:56;10.40;;;2.50;;
5279;SDS011;2663;53.588;10.010;2023-08-24T06:58:23;8.43;;;2.27;;
5279;SDS011;2663;53.588;10.010;2023-08-24T07:00:50;3.33;;;1.97;;
5279;SDS011;2663;53.588;10.010;2023-08-24T07:03:17;8.33;;;3.40;;
5279;SDS011;2663;53.588;10.010;2023-08-24T07:05:45;12.10;;;3.27;;
5279;SDS011;2663;53.588;10.010;2023-08-24T07:08:12;4.67;;;2.43;;
5279;SDS011;2663;53.588;10.010;2023-08-24T07:10:40;12.23;;;2.50;;
5279;SDS011;2663;53.588;10.010;2023-08-24T07:13:09;8.20;;;2.80;;
5279;SDS011;2663;53.588;10.010;2023-08-24T07:15:35;3.33;;;2.20;;
5279;SDS011;2663;53.588;10.010;2023-08-24T07:18:02;9.33;;;3.67;;
5279;SDS011;2663;53.588;10.010;2023-08-24T07:20:32;6.10;;;1.97;;
5279;SDS011;2663;53.588;10.010;2023-08-24T07:22:59;8.00;;;1.60;;
5279;SDS011;2663;53.588;10.010;2023-08-24T07:25:26;2.83;;;1.83;;
5279;SDS011;2663;53.588;10.010;2023-08-24T07:27:54;4.23;;;1.93;;
5279;SDS011;2663;53.588;10.010;2023-08-24T07:30:25;3.63;;;2.00;;
5279;SDS011;2663;53.588;10.010;2023-08-24T07:32:59;7.33;;;2.40;;
5279;SDS011;2663;53.588;10.010;2023-08-24T07:35:27;4.90;;;2.20;;
5279;SDS011;2663;53.588;10.010;2023-08-24T07:37:54;4.47;;;1.70;;
5279;SDS011;2663;53.588;10.010;2023-08-24T07:40:21;5.03;;;1.90;;
5279;SDS011;2663;53.588;10.010;2023-08-24T07:42:49;7.30;;;2.50;;
5279;SDS011;2663;53.588;10.010;2023-08-24T07:45:19;3.33;;;1.90;;
5279;SDS011;2663;53.588;10.010;2023-08-24T07:47:46;6.67;;;2.30;;
5279;SDS011;2663;53.588;10.010;2023-08-24T07:50:14;6.17;;;2.10;;
5279;SDS011;2663;53.588;10.010;2023-08-24T07:52:41;2.13;;;1.90;;
5279;SDS011;2663;53.588;10.010;2023-08-24T07:55:08;7.00;;;2.33;;
5279;SDS011;2663;53.588;10.010;2023-08-24T07:57:38;2.20;;;1.70;;
5279;SDS011;2663;53.588;10.010;2023-08-24T08:00:05;2.27;;;2.07;;
5279;SDS011;2663;53.588;10.010;2023-08-24T08:02:35;3.90;;;2.00;;
5279;SDS011;2663;53.588;10.010;2023-08-24T08:05:04;7.57;;;3.67;;
5279;SDS011;2663;53.588;10.010;2023-08-24T08:07:33;6.87;;;2.63;;
5279;SDS011;2663;53.588;10.010;2023-08-24T08:10:00;24.70;;;12.60;;
5279;SDS011;2663;53.588;10.010;2023-08-24T08:12:27;10.33;;;3.50;;
5279;SDS011;2663;53.588;10.010;2023-08-24T08:14:55;7.80;;;2.30;;
5279;SDS011;2663;53.588;10.010;2023-08-24T08:17:22;11.30;;;3.37;;
5279;SDS011;2663;53.588;10.010;2023-08-24T08:19:53;22.63;;;4.53;;
5279;SDS011;2663;53.588;10.010;2023-08-24T08:22:21;8.80;;;4.20;;
5279;SDS011;2663;53.588;10.010;2023-08-24T08:24:48;8.77;;;2.60;;
5279;SDS011;2663;53.588;10.010;2023-08-24T08:27:16;5.67;;;2.17;;
5279;SDS011;2663;53.588;10.010;2023-08-24T08:29:42;9.30;;;3.03;;
5279;SDS011;2663;53.588;10.010;2023-08-24T08:32:09;6.77;;;3.70;;
5279;SDS011;2663;53.588;10.010;2023-08-24T08:34:38;10.13;;;2.70;;
5279;SDS011;2663;53.588;10.010;2023-08-24T08:37:05;8.53;;;2.47;;
5279;SDS011;2663;53.588;10.010;2023-08-24T08:39:32;6.13;;;3.03;;
5279;SDS011;2663;53.588;10.010;2023-08-24T08:41:59;5.60;;;1.97;;
5279;SDS011;2663;53.588;10.010;2023-08-24T08:44:30;8.23;;;2.20;;
5279;SDS011;2663;53.588;10.010;2023-08-24T08:47:00;6.80;;;2.63;;
5279;SDS011;2663;53.588;10.010;2023-08-24T08:49:29;12.97;;;2.80;;
5279;SDS011;2663;53.588;10.010;2023-08-24T08:51:57;6.00;;;1.80;;
5279;SDS011;2663;53.588;10.010;2023-08-24T08:54:24;12.93;;;2.87;;
5279;SDS011;2663;53.588;10.010;2023-08-24T08:56:52;4.67;;;2.00;;
5279;SDS011;2663;53.588;10.010;2023-08-24T08:59:18;4.40;;;2.50;;
5279;SDS011;2663;53.588;10.010;2023-08-24T09:01:46;5.53;;;2.43;;
5279;SDS011;2663;53.588;10.010;2023-08-24T09:04:13;6.13;;;2.80;;
5279;SDS011;2663;53.588;10.010;2023-08-24T09:06:41;12.10;;;3.47;;
5279;SDS011;2663;53.588;10.010;2023-08-24T09:09:08;8.57;;;3.20;;
5279;SDS011;2663;53.588;10.010;2023-08-24T09:11:35;4.37;;;2.43;;
5279;SDS011;2663;53.588;10.010;2023-08-24T09:14:03;12.90;;;2.83;;
5279;SDS011;2663;53.588;10.010;2023-08-24T09:16:30;7.90;;;2.70;;
5279;SDS011;2663;53.588;10.010;2023-08-24T09:18:58;7.63;;;2.20;;
5279;SDS011;2663;53.588;10.010;2023-08-24T09:21:25;8.73;;;2.30;;
5279;SDS011;2663;53.588;10.010;2023-08-24T09:23:52;4.73;;;2.13;;
5279;SDS011;2663;53.588;10.010;2023-08-24T09:26:30;10.30;;;3.20;;
5279;SDS011;2663;53.588;10.010;2023-08-24T09:28:57;10.43;;;2.47;;
5279;SDS011;2663;53.588;10.010;2023-08-24T09:31:37;3.57;;;2.20;;
5279;SDS011;2663;53.588;10.010;2023-08-24T09:34:07;7.00;;;2.23;;
5279;SDS011;2663;53.588;10.010;2023-08-24T09:36:35;6.77;;;2.20;;
5279;SDS011;2663;53.588;10.010;2023-08-24T09:39:03;12.87;;;5.87;;
5279;SDS011;2663;53.588;10.010;2023-08-24T09:41:37;11.57;;;3.70;;
5279;SDS011;2663;53.588;10.010;2023-08-24T09:44:05;5.07;;;2.50;;
5279;SDS011;2663;53.588;10.010;2023-08-24T09:46:32;4.63;;;2.83;;
5279;SDS011;2663;53.588;10.010;2023-08-24T09:48:59;5.80;;;2.63;;
5279;SDS011;2663;53.588;10.010;2023-08-24T09:51:27;7.60;;;2.90;;
5279;SDS011;2663;53.588;10.010;2023-08-24T09:53:56;13.23;;;3.10;;
5279;SDS011;2663;53.588;10.010;2023-08-24T09:56:28;7.20;;;2.80;;
5279;SDS011;2663;53.588;10.010;2023-08-24T09:58:55;8.67;;;2.73;;
5279;SDS011;2663;53.588;10.010;2023-08-24T10:01:25;8.30;;;2.17;;
5279;SDS011;2663;53.588;10.010;2023-08-24T10:03:53;6.40;;;3.90;;
5279;SDS011;2663;53.588;10.010;2023-08-24T10:06:24;9.77;;;4.87;;
5279;SDS011;2663;53.588;10.010;2023-08-24T10:08:54;9.33;;;4.60;;
5279;SDS011;2663;53.588;10.010;2023-08-24T10:11:26;6.53;;;4.30;;
5279;SDS011;2663;53.588;10.010;2023-08-24T10:16:26;4.87;;;3.23;;
5279;SDS011;2663;53.588;10.010;2023-08-24T10:18:55;9.67;;;3.47;;
5279;SDS011;2663;53.588;10.010;2023-08-24T10:21:23;7.50;;;3.70;;
5279;SDS011;2663;53.588;10.010;2023-08-24T10:23:53;4.67;;;3.23;;
5279;SDS011;2663;53.588;10.010;2023-08-24T10:26:24;7.63;;;3.23;;
5279;SDS011;2663;53.588;10.010;2023-08-24T10:28:53;10.57;;;3.10;;
5279;SDS011;2663;53.588;10.010;2023-08-24T10:31:20;4.83;;;3.07;;
5279;SDS011;2663;53.588;10.010;2023-08-24T10:33:48;7.80;;;2.77;;
5279;SDS011;2663;53.588;10.010;2023-08-24T10:36:17;44.67;;;5.40;;
5279;SDS011;2663;53.588;10.010;2023-08-24T10:38:44;5.43;;;2.90;;
5279;SDS011;2663;53.588;10.010;2023-08-24T10:41:11;11.40;;;4.00;;
5279;SDS011;2663;53.588;10.010;2023-08-24T10:43:41;10.10;;;3.47;;
5279;SDS011;2663;53.588;10.010;2023-08-24T10:46:15;10.73;;;3.03;;
5279;SDS011;2663;53.588;10.010;2023-08-24T11:01:40;16.27;;;4.43;;
5279;SDS011;2663;53.588;10.010;2023-08-24T11:04:08;93.00;;;8.80;;
5279;SDS011;2663;53.588;10.010;2023-08-24T11:06:49;40.23;;;7.30;;
5279;SDS011;2663;53.588;10.010;2023-08-24T11:09:21;39.00;;;5.63;;
5279;SDS011;2663;53.588;10.010;2023-08-24T11:11:56;9.23;;;3.80;;
5279;SDS011;2663;53.588;10.010;2023-08-24T11:14:27;11.90;;;3.27;;
5279;SDS011;2663;53.588;10.010;2023-08-24T11:16:58;4.43;;;2.97;;
5279;SDS011;2663;53.588;10.010;2023-08-24T11:19:26;12.83;;;2.80;;
5279;SDS011;2663;53.588;10.010;2023-08-24T11:21:53;17.73;;;7.03;;
5279;SDS011;2663;53.588;10.010;2023-08-24T11:24:20;9.43;;;3.30;;
5279;SDS011;2663;53.588;10.010;2023-08-24T11:26:47;26.23;;;7.27;;
5279;SDS011;2663;53.588;10.010;2023-08-24T11:29:15;15.00;;;5.77;;
5279;SDS011;2663;53.588;10.010;2023-08-24T11:31:41;4.57;;;3.60;;
5279;SDS011;2663;53.588;10.010;2023-08-24T11:34:09;11.80;;;6.73;;
5279;SDS011;2663;53.588;10.010;2023-08-24T11:36:46;11.17;;;4.30;;
5279;SDS011;2663;53.588;10.010;2023-08-24T11:39:14;8.07;;;3.80;;
5279;SDS011;2663;53.588;10.010;2023-08-24T11:41:43;13.37;;;3.10;;
5279;SDS011;2663;53.588;10.010;2023-08-24T11:44:10;11.37;;;7.57;;
5279;SDS011;2663;53.588;10.010;2023-08-24T11:46:55;12.27;;;4.20;;
5279;SDS011;2663;53.588;10.010;2023-08-24T11:49:23;78.20;;;9.97;;
5279;SDS011;2663;53.588;10.010;2023-08-24T11:51:50;13.00;;;4.27;;
5279;SDS011;2663;53.588;10.010;2023-08-24T11:54:20;5.43;;;3.37;;
5279;SDS011;2663;53.588;10.010;2023-08-24T11:56:47;12.07;;;3.77;;
5279;SDS011;2663;53.588;10.010;2023-08-24T11:59:14;13.90;;;5.30;;
5279;SDS011;2663;53.588;10.010;2023-08-24T12:01:42;7.47;;;3.30;;
5279;SDS011;2663;53.588;10.010;2023-08-24T12:04:10;108.33;;;10.50;;
5279;SDS011;2663;53.588;10.010;2023-08-24T12:06:38;39.80;;;5.60;;
5279;SDS011;2663;53.588;10.010;2023-08-24T12:09:06;8.27;;;3.77;;
5279;SDS011;2663;53.588;10.010;2023-08-24T12:11:36;61.87;;;6.20;;
5279;SDS011;2663;53.588;10.010;2023-08-24T12:14:03;15.83;;;5.13;;
5279;SDS011;2663;53.588;10.010;2023-08-24T12:16:31;7.97;;;4.00;;
5279;SDS011;2663;53.588;10.010;2023-08-24T12:18:59;9.80;;;5.50;;
5279;SDS011;2663;53.588;10.010;2023-08-24T12:21:29;8.10;;;3.00;;
5279;SDS011;2663;53.588;10.010;2023-08-24T12:23:56;34.23;;;6.37;;
5279;SDS011;2663;53.588;10.010;2023-08-24T12:26:25;14.43;;;4.30;;
5279;SDS011;2663;53.588;10.010;2023-08-24T12:28:53;16.77;;;3.80;;
5279;SDS011;2663;53.588;10.010;2023-08-24T12:31:24;15.60;;;3.77;;
5279;SDS011;2663;53.588;10.010;2023-08-24T12:34:03;32.17;;;6.20;;
5279;SDS011;2663;53.588;10.010;2023-08-24T12:36:35;8.47;;;4.97;;
5279;SDS011;2663;53.588;10.010;2023-08-24T12:39:03;13.73;;;5.50;;
5279;SDS011;2663;53.588;10.010;2023-08-24T12:41:31;33.43;;;6.50;;
5279;SDS011;2663;53.588;10.010;2023-08-24T12:43:58;19.17;;;5.00;;
5279;SDS011;2663;53.588;10.010;2023-08-24T12:46:25;26.10;;;3.93;;
5279;SDS011;2663;53.588;10.010;2023-08-24T12:48:54;4.80;;;3.57;;
5279;SDS011;2663;53.588;10.010;2023-08-24T12:51:22;6.40;;;3.70;;
5279;SDS011;2663;53.588;10.010;2023-08-24T12:53:50;7.23;;;3.53;;
5279;SDS011;2663;53.588;10.010;2023-08-24T12:56:17;8.33;;;2.77;;
5279;SDS011;2663;53.588;10.010;2023-08-24T12:58:44;11.30;;;3.63;;
5279;SDS011;2663;53.588;10.010;2023-08-24T13:01:11;7.77;;;3.00;;
5279;SDS011;2663;53.588;10.010;2023-08-24T13:03:38;7.20;;;3.00;;
5279;SDS011;2663;53.588;10.010;2023-08-24T13:06:06;6.83;;;2.97;;
5279;SDS011;2663;53.588;10.010;2023-08-24T13:08:49;4.50;;;3.37;;
5279;SDS011;2663;53.588;10.010;2023-08-24T13:11:15;6.97;;;3.40;;
5279;SDS011;2663;53.588;10.010;2023-08-24T13:13:42;10.97;;;3.30;;
5279;SDS011;2663;53.588;10.010;2023-08-24T13:16:09;28.67;;;3.97;;
5279;SDS011;2663;53.588;10.010;2023-08-24T13:18:36;6.13;;;3.17;;
5279;SDS011;2663;53.588;10.010;2023-08-24T13:21:03;37.37;;;4.50;;
5279;SDS011;2663;53.588;10.010;2023-08-24T13:23:29;10.93;;;3.13;;
5279;SDS011;2663;53.588;10.010;2023-08-24T13:25:57;23.43;;;3.77;;
5279;SDS011;2663;53.588;10.010;2023-08-24T13:28:24;38.33;;;5.30;;
5279;SDS011;2663;53.588;10.010;2023-08-24T13:30:51;24.00;;;3.60;;
5279;SDS011;2663;53.588;10.010;2023-08-24T13:33:17;19.90;;;3.80;;
5279;SDS011;2663;53.588;10.010;2023-08-24T13:35:45;13.33;;;5.10;;
5279;SDS011;2663;53.588;10.010;2023-08-24T13:38:12;4.80;;;3.00;;
5279;SDS011;2663;53.588;10.010;2023-08-24T13:40:39;20.23;;;5.90;;
5279;SDS011;2663;53.588;10.010;2023-08-24T13:43:06;26.90;;;5.87;;
5279;SDS011;2663;53.588;10.010;2023-08-24T13:45:32;20.63;;;3.70;;
5279;SDS011;2663;53.588;10.010;2023-08-24T13:48:01;9.00;;;3.23;;
5279;SDS011;2663;53.588;10.010;2023-08-24T13:50:28;8.63;;;2.93;;
5279;SDS011;2663;53.588;10.010;2023-08-24T13:52:55;9.87;;;3.07;;
5279;SDS011;2663;53.588;10.010;2023-08-24T13:55:22;4.93;;;3.20;;
5279;SDS011;2663;53.588;10.010;2023-08-24T13:57:49;7.60;;;2.60;;
5279;SDS011;2663;53.588;10.010;2023-08-24T14:00:16;10.43;;;2.70;;
5279;SDS011;2663;53.588;10.010;2023-08-24T14:02:43;19.77;;;10.53;;
5279;SDS011;2663;53.588;10.010;2023-08-24T14:05:11;5.10;;;2.73;;
5279;SDS011;2663;53.588;10.010;2023-08-24T14:07:39;56.73;;;7.60;;
5279;SDS011;2663;53.588;10.010;2023-08-24T14:10:06;24.83;;;5.00;;
5279;SDS011;2663;53.588;10.010;2023-08-24T14:12:34;15.80;;;4.30;;
5279;SDS011;2663;53.588;10.010;2023-08-24T14:15:01;10.60;;;3.27;;
5279;SDS011;2663;53.588;10.010;2023-08-24T14:17:28;5.50;;;2.33;;
5279;SDS011;2663;53.588;10.010;2023-08-24T14:19:55;6.20;;;3.10;;
5279;SDS011;2663;53.588;10.010;2023-08-24T14:22:22;9.23;;;4.70;;
5279;SDS011;2663;53.588;10.010;2023-08-24T14:24:48;11.13;;;4.13;;
5279;SDS011;2663;53.588;10.010;2023-08-24T14:27:15;25.60;;;3.47;;
5279;SDS011;2663;53.588;10.010;2023-08-24T14:29:42;17.17;;;6.23;;
5279;SDS011;2663;53.588;10.010;2023-08-24T14:32:08;35.33;;;3.80;;
5279;SDS011;2663;53.588;10.010;2023-08-24T14:34:35;12.90;;;3.97;;
5279;SDS011;2663;53.588;10.010;2023-08-24T14:37:02;15.10;;;3.00;;
5279;SDS011;2663;53.588;10.010;2023-08-24T14:39:29;21.90;;;4.33;;
5279;SDS011;2663;53.588;10.010;2023-08-24T14:41:56;121.43;;;10.70;;
5279;SDS011;2663;53.588;10.010;2023-08-24T14:44:22;38.33;;;4.87;;
5279;SDS011;2663;53.588;10.010;2023-08-24T14:46:49;40.97;;;4.40;;
5279;SDS011;2663;53.588;10.010;2023-08-24T14:49:16;70.80;;;12.93;;
5279;SDS011;2663;53.588;10.010;2023-08-24T14:51:45;38.07;;;5.47;;
5279;SDS011;2663;53.588;10.010;2023-08-24T14:54:13;7.07;;;2.80;;
5279;SDS011;2663;53.588;10.010;2023-08-24T14:56:41;54.93;;;6.73;;
5279;SDS011;2663;53.588;10.010;2023-08-24T14:59:07;29.70;;;5.77;;
5279;SDS011;2663;53.588;10.010;2023-08-24T15:01:34;22.33;;;3.07;;
5279;SDS011;2663;53.588;10.010;2023-08-24T15:04:01;5.80;;;2.90;;
5279;SDS011;2663;53.588;10.010;2023-08-24T15:06:28;21.87;;;4.40;;
5279;SDS011;2663;53.588;10.010;2023-08-24T15:08:55;21.53;;;4.70;;
5279;SDS011;2663;53.588;10.010;2023-08-24T15:11:21;13.70;;;3.57;;
5279;SDS011;2663;53.588;10.010;2023-08-24T15:13:48;4.67;;;3.10;;
5279;SDS011;2663;53.588;10.010;2023-08-24T15:16:15;8.90;;;4.20;;
5279;SDS011;2663;53.588;10.010;2023-08-24T15:18:42;5.50;;;2.40;;